Time;durP1;ratioP1;P1;durP2;ratioP2;P2;SDS_P1;SDS_P2;PMS_P1;PMS_P2;Temp;Humidity;BMP_temperature;BMP_pressure;BME280_temperature;BME280_humidity;BME280_pressure;Samples;Min_cycle;Max_cycle;Signal;HPM_P1;HPM_P2
2022/05/24 00:02:04;;;;;;;20.95;15.15;;;13.10;99.90;;;;;;5012953;28;20034;-78
2022/05/24 00:04:30;;;;;;;22.67;15.73;;;13.10;99.90;;;;;;4987986;28;20039;-78
2022/05/24 00:06:56;;;;;;;21.35;14.60;;;13.10;99.90;;;;;;4987939;28;20120;-78
2022/05/24 00:09:22;;;;;;;21.70;14.60;;;13.10;99.90;;;;;;4997455;28;20505;-78
2022/05/24 00:11:48;;;;;;;17.80;13.82;;;13.10;99.90;;;;;;4993176;28;20093;-78
2022/05/24 00:14:14;;;;;;;18.27;13.20;;;13.10;99.90;;;;;;4981508;28;20039;-78
2022/05/24 00:16:39;;;;;;;14.18;12.20;;;13.00;99.90;;;;;;5001190;28;20080;-78
2022/05/24 00:19:05;;;;;;;16.00;12.15;;;13.00;99.90;;;;;;4976631;28;20097;-78
2022/05/24 00:21:31;;;;;;;14.48;12.15;;;13.00;99.90;;;;;;4993239;28;20034;-78
2022/05/24 00:23:56;;;;;;;19.80;12.68;;;13.00;99.90;;;;;;4976397;28;20054;-77
2022/05/24 00:26:30;;;;;;;17.23;12.07;;;13.00;99.90;;;;;;4976999;28;20034;-78
2022/05/24 00:28:55;;;;;;;14.63;11.45;;;13.00;99.90;;;;;;4986498;28;20240;-78
2022/05/24 00:31:21;;;;;;;16.75;11.73;;;12.90;99.90;;;;;;4988005;28;20053;-78
2022/05/24 00:33:47;;;;;;;15.18;11.32;;;12.90;99.90;;;;;;4993815;28;20042;-78
2022/05/24 00:36:13;;;;;;;12.48;11.18;;;12.90;99.90;;;;;;4976523;28;20401;-78
2022/05/24 00:38:39;;;;;;;13.15;10.60;;;12.90;99.90;;;;;;4976533;28;20089;-78
2022/05/24 00:41:22;;;;;;;12.95;10.95;;;12.80;99.90;;;;;;5001854;28;20046;-78
2022/05/24 00:44:16;;;;;;;14.20;11.15;;;12.80;99.90;;;;;;5001648;28;20087;-78
2022/05/24 00:47:11;;;;;;;13.35;10.45;;;12.80;99.90;;;;;;4976634;28;20038;-78
2022/05/24 00:49:58;;;;;;;12.88;10.60;;;12.70;99.90;;;;;;4973866;28;20061;-77
2022/05/24 00:52:30;;;;;;;11.93;10.32;;;12.70;99.90;;;;;;4976288;28;20053;-78
2022/05/24 00:54:59;;;;;;;13.48;11.32;;;12.60;99.90;;;;;;4981457;28;20049;-78
2022/05/24 00:57:40;;;;;;;14.00;11.40;;;12.60;99.90;;;;;;4983606;28;20128;-78
2022/05/24 01:00:11;;;;;;;15.50;10.90;;;12.50;99.90;;;;;;5011907;28;20038;-78
2022/05/24 01:02:37;;;;;;;15.05;11.10;;;12.50;99.90;;;;;;5011748;28;20033;-78
2022/05/24 01:05:05;;;;;;;14.25;11.77;;;12.40;99.90;;;;;;4995674;28;20132;-78
2022/05/24 01:07:31;;;;;;;14.35;11.90;;;12.50;99.90;;;;;;4995120;28;20045;-78
2022/05/24 01:10:10;;;;;;;14.68;11.38;;;12.40;99.90;;;;;;4994852;28;20509;-78
2022/05/24 01:13:03;;;;;;;12.80;11.40;;;12.50;99.90;;;;;;4994729;28;20050;-78
2022/05/24 01:15:29;;;;;;;16.95;12.05;;;12.50;99.90;;;;;;4992365;28;20057;-78
2022/05/24 01:17:58;;;;;;;15.60;11.63;;;12.50;99.90;;;;;;4993842;28;20061;-78
2022/05/24 01:20:25;;;;;;;16.77;11.48;;;12.50;99.90;;;;;;5003254;28;20038;-78
2022/05/24 01:23:16;;;;;;;15.05;11.25;;;12.50;99.90;;;;;;4976534;28;20039;-78
2022/05/24 01:25:56;;;;;;;17.58;12.50;;;12.50;99.90;;;;;;4976082;28;20471;-78
2022/05/24 01:28:28;;;;;;;13.90;11.52;;;12.50;99.90;;;;;;4975935;28;20050;-79
2022/05/24 01:30:55;;;;;;;13.60;11.30;;;12.50;99.90;;;;;;4975797;28;20096;-79
2022/05/24 01:36:10;;;;;;;16.27;11.63;;;12.50;99.90;;;;;;4991007;28;20100;-79
2022/05/24 01:38:43;;;;;;;15.65;11.30;;;12.40;99.90;;;;;;4991546;28;20141;-78
2022/05/24 01:41:10;;;;;;;17.02;12.85;;;12.40;99.90;;;;;;4992003;28;20038;-78
2022/05/24 01:43:37;;;;;;;21.08;14.27;;;12.40;99.90;;;;;;4993654;28;20435;-78
2022/05/24 01:46:07;;;;;;;22.20;16.08;;;12.40;99.90;;;;;;4999620;28;20485;-78
2022/05/24 01:48:40;;;;;;;25.33;16.63;;;12.50;99.90;;;;;;4992054;28;20039;-79
2022/05/24 01:51:07;;;;;;;;;;;12.50;99.90;;;;;;4975708;28;20088;-79
2022/05/24 01:53:42;;;;;;;30.75;19.55;;;12.50;99.90;;;;;;4975576;28;19918;-79
2022/05/24 01:56:13;;;;;;;31.67;18.77;;;12.50;99.90;;;;;;4975321;28;20034;-79
2022/05/24 01:58:40;;;;;;;31.63;20.67;;;12.60;99.90;;;;;;4991241;28;20042;-79
2022/05/24 02:01:43;;;;;;;32.75;19.83;;;12.60;99.90;;;;;;4986866;28;20073;-79
2022/05/24 02:04:08;;;;;;;32.70;19.42;;;12.60;99.90;;;;;;4959780;28;20046;-79
2022/05/24 02:06:35;;;;;;;34.83;20.67;;;12.60;99.90;;;;;;4994704;28;20038;-78
2022/05/24 02:09:01;;;;;;;36.60;20.77;;;12.60;99.90;;;;;;5010591;28;20057;-78
2022/05/24 02:11:29;;;;;;;33.50;20.58;;;12.60;99.90;;;;;;4994685;28;20045;-79
2022/05/24 02:14:15;;;;;;;34.95;20.95;;;12.70;99.90;;;;;;4994634;28;20042;-78
2022/05/24 02:16:49;;;;;;;32.55;21.70;;;12.70;99.90;;;;;;4991613;28;20046;-79
2022/05/24 02:19:16;;;;;;;34.08;21.05;;;12.70;99.90;;;;;;5004862;28;20038;-79
2022/05/24 02:21:45;;;;;;;39.65;22.60;;;12.70;99.90;;;;;;4994462;28;20522;-78
2022/05/24 02:24:20;;;;;;;36.70;22.02;;;12.70;99.90;;;;;;4994898;28;20041;-79
2022/05/24 02:26:48;;;;;;;32.60;20.55;;;12.80;99.90;;;;;;5002432;28;20034;-79
2022/05/24 02:29:15;;;;;;;35.35;21.42;;;12.80;99.90;;;;;;4996913;28;20042;-78
2022/05/24 02:31:42;;;;;;;32.33;21.05;;;12.80;99.90;;;;;;4991170;28;20042;-79
2022/05/24 02:34:08;;;;;;;35.28;22.90;;;12.80;99.90;;;;;;4991506;28;20505;-78
2022/05/24 02:36:34;;;;;;;36.70;23.35;;;12.80;99.90;;;;;;4991236;28;20045;-79
2022/05/24 02:39:00;;;;;;;32.05;21.27;;;12.80;99.90;;;;;;4976860;28;20052;-79
2022/05/24 02:41:29;;;;;;;36.13;22.98;;;12.80;99.90;;;;;;4982828;28;20046;-79
2022/05/24 02:44:01;;;;;;;33.42;22.90;;;12.80;99.90;;;;;;4991133;28;20066;-79
2022/05/24 02:46:28;;;;;;;32.27;22.43;;;12.80;99.90;;;;;;4991201;28;20038;-78
2022/05/24 02:48:54;;;;;;;35.63;23.48;;;12.90;99.90;;;;;;4994558;28;20042;-78
2022/05/24 02:51:20;;;;;;;36.80;22.73;;;12.90;99.90;;;;;;4996341;28;20045;-79
2022/05/24 02:53:45;;;;;;;33.53;21.85;;;12.90;99.90;;;;;;5004262;28;20046;-79
2022/05/24 02:56:11;;;;;;;32.70;22.45;;;12.90;99.90;;;;;;4995138;28;20069;-79
2022/05/24 02:58:38;;;;;;;31.38;22.65;;;12.90;99.90;;;;;;4994913;28;20077;-78
2022/05/24 03:01:10;;;;;;;29.85;21.50;;;12.90;99.90;;;;;;4994578;28;20034;-78
2022/05/24 03:03:36;;;;;;;30.73;21.45;;;13.00;99.90;;;;;;4994835;28;20045;-78
2022/05/24 03:06:01;;;;;;;33.15;21.73;;;13.00;99.90;;;;;;5002203;28;20037;-78
2022/05/24 03:11:11;;;;;;;30.40;21.50;;;13.00;99.90;;;;;;4994461;28;20057;-78
2022/05/24 03:16:21;;;;;;;29.30;19.90;;;13.00;99.90;;;;;;4994397;28;20185;-78
2022/05/24 03:18:46;;;;;;;27.60;19.98;;;13.00;99.90;;;;;;4999662;28;20129;-79
2022/05/24 03:21:12;;;;;;;29.63;20.25;;;13.00;99.90;;;;;;4985906;28;20054;-78
2022/05/24 03:23:38;;;;;;;28.73;19.45;;;13.00;99.90;;;;;;4994297;28;20038;-79
2022/05/24 03:26:04;;;;;;;26.52;18.75;;;13.00;99.90;;;;;;4994541;28;20069;-79
2022/05/24 03:28:30;;;;;;;28.83;19.23;;;13.00;99.90;;;;;;4983137;28;20097;-79
2022/05/24 03:30:55;;;;;;;28.52;19.48;;;13.00;99.90;;;;;;5001997;28;20172;-79
2022/05/24 03:33:21;;;;;;;30.90;20.02;;;13.00;99.90;;;;;;4977928;28;20042;-78
2022/05/24 03:35:47;;;;;;;27.95;20.48;;;13.00;99.90;;;;;;4993952;28;20042;-78
2022/05/24 03:38:12;;;;;;;29.48;20.13;;;13.00;99.90;;;;;;4993653;28;20038;-78
2022/05/24 03:40:38;;;;;;;29.70;19.25;;;13.00;99.90;;;;;;4994028;28;20539;-78
2022/05/24 03:43:13;;;;;;;34.20;20.70;;;13.00;99.90;;;;;;5001968;28;20471;-78
2022/05/24 03:45:39;;;;;;;25.27;18.63;;;13.00;99.90;;;;;;5002209;28;20728;-78
2022/05/24 03:48:04;;;;;;;34.78;20.25;;;13.00;99.90;;;;;;4993606;28;20070;-78
2022/05/24 03:50:30;;;;;;;29.98;20.80;;;13.00;99.90;;;;;;4993945;28;20480;-79
2022/05/24 03:52:56;;;;;;;34.80;20.90;;;12.90;99.90;;;;;;4993576;28;20045;-79
2022/05/24 03:55:22;;;;;;;32.90;21.77;;;13.00;99.90;;;;;;5000074;28;20042;-78
2022/05/24 03:58:00;;;;;;;30.17;20.15;;;13.00;99.90;;;;;;4992994;28;20084;-79
2022/05/24 04:00:29;;;;;;;34.28;22.90;;;13.00;99.90;;;;;;4992531;28;20080;-79
2022/05/24 04:02:56;;;;;;;35.95;21.75;;;13.00;99.90;;;;;;5013509;28;20034;-78
2022/05/24 04:05:21;;;;;;;28.20;20.05;;;12.90;99.90;;;;;;5012477;28;20049;-79
2022/05/24 04:07:47;;;;;;;30.45;20.58;;;12.90;99.90;;;;;;5002827;28;20042;-79
2022/05/24 04:10:14;;;;;;;27.63;19.42;;;12.90;99.90;;;;;;4977472;28;20257;-78
2022/05/24 04:12:40;;;;;;;31.35;21.25;;;12.90;99.90;;;;;;4993897;28;20492;-79
2022/05/24 04:15:07;;;;;;;29.15;20.50;;;12.80;99.90;;;;;;4993401;28;20064;-79
2022/05/24 04:17:32;;;;;;;30.23;21.35;;;12.80;99.90;;;;;;4977173;28;20085;-78
2022/05/24 04:19:58;;;;;;;31.02;20.30;;;12.70;99.90;;;;;;4997679;28;20144;-79
2022/05/24 04:22:23;;;;;;;31.67;20.15;;;12.80;99.90;;;;;;5008675;28;20543;-79
2022/05/24 04:24:49;;;;;;;30.55;21.27;;;12.70;99.90;;;;;;5013454;28;20073;-78
2022/05/24 04:27:14;;;;;;;28.27;19.70;;;12.70;99.90;;;;;;4996854;28;20400;-78
2022/05/24 04:29:41;;;;;;;27.50;18.73;;;12.70;99.90;;;;;;5010719;28;20042;-79
2022/05/24 04:32:08;;;;;;;28.90;18.40;;;12.80;99.90;;;;;;4984952;28;20049;-79
2022/05/24 04:34:34;;;;;;;27.00;18.98;;;12.70;99.90;;;;;;4976722;28;20046;-79
2022/05/24 04:37:00;;;;;;;28.42;18.85;;;12.70;99.90;;;;;;4976620;28;20042;-79
2022/05/24 04:39:26;;;;;;;25.02;18.00;;;12.70;99.90;;;;;;4976722;28;20058;-79
2022/05/24 04:44:35;;;;;;;22.65;15.77;;;12.70;99.90;;;;;;4999482;28;20049;-79
2022/05/24 04:47:10;;;;;;;24.08;16.33;;;12.60;99.90;;;;;;4992495;28;20117;-78
2022/05/24 04:49:37;;;;;;;21.88;15.93;;;12.60;99.90;;;;;;4992651;28;20061;-78
2022/05/24 04:52:05;;;;;;;23.75;16.17;;;12.60;99.90;;;;;;4992541;28;20038;-78
2022/05/24 04:54:30;;;;;;;22.33;15.27;;;12.60;99.90;;;;;;5001107;28;20575;-78
2022/05/24 04:56:56;;;;;;;22.30;15.10;;;12.60;99.90;;;;;;4984485;28;20161;-78
2022/05/24 04:59:21;;;;;;;18.10;13.75;;;12.60;99.90;;;;;;4991897;28;20080;-79
2022/05/24 05:05:41;;;;;;;;;;;;;;;;;;;;;
2022/05/24 05:12:09;;;;;;;19.08;13.93;;;12.70;99.90;;;;;;5036215;28;20183;-79
2022/05/24 05:15:05;;;;;;;16.95;13.23;;;12.60;99.90;;;;;;5039206;28;20037;-80
2022/05/24 05:22:10;;;;;;;20.48;13.38;;;12.60;99.90;;;;;;5025732;28;20131;-80
2022/05/24 05:28:48;;;;;;;;;;;;;;;;;;;;;
2022/05/24 05:32:26;;;;;;;19.70;13.25;;;12.50;99.90;;;;;;4991233;28;20440;-80
2022/05/24 05:35:15;;;;;;;20.75;13.13;;;12.60;99.90;;;;;;5012131;28;20140;-80
2022/05/24 05:38:57;;;;;;;20.02;13.48;;;12.60;99.90;;;;;;4996505;28;20045;-80
2022/05/24 05:42:03;;;;;;;16.85;13.30;;;12.70;99.90;;;;;;5037663;28;20415;-80
2022/05/24 05:44:54;;;;;;;;;;;;;;;;;;;;;
2022/05/24 05:47:52;;;;;;;21.30;14.15;;;12.70;99.90;;;;;;5029550;28;20407;-81
2022/05/24 05:50:51;;;;;;;18.13;14.15;;;12.80;99.90;;;;;;5030507;28;20044;-81
2022/05/24 05:54:25;;;;;;;22.60;14.23;;;12.80;99.90;;;;;;5014654;28;20419;-80
2022/05/24 05:58:04;;;;;;;18.20;13.60;;;12.90;99.90;;;;;;4957576;28;20549;-80
2022/05/24 06:01:19;;;;;;;19.83;13.93;;;12.90;99.90;;;;;;4902447;29;20146;-80
2022/05/24 06:04:30;;;;;;;;;;;;;;;;;;;;;
2022/05/24 06:11:40;;;;;;;21.77;14.73;;;13.10;99.90;;;;;;4971156;28;20093;-81
2022/05/24 08:48:28;;;;;;;6.20;4.47;;;19.60;99.90;;;;;;4953148;28;20045;-80
2022/05/24 08:54:58;;;;;;;7.47;3.80;;;18.20;99.90;;;;;;5068034;28;20040;-79
2022/05/24 08:57:42;;;;;;;5.40;4.53;;;17.70;99.90;;;;;;5035720;28;20049;-79
2022/05/24 09:00:24;;;;;;;5.13;4.63;;;17.30;99.90;;;;;;5035965;28;20123;-79
2022/05/24 09:02:50;;;;;;;5.50;4.88;;;17.00;99.90;;;;;;5040830;28;20032;-79
2022/05/24 09:05:28;;;;;;;7.28;4.57;;;16.80;99.90;;;;;;5035160;28;20040;-80
2022/05/24 09:08:07;;;;;;;7.38;4.68;;;16.80;99.90;;;;;;5035263;28;20491;-79
2022/05/24 09:10:44;;;;;;;7.47;4.28;;;16.80;99.90;;;;;;5039188;28;20489;-78
2022/05/24 09:13:29;;;;;;;7.07;5.30;;;16.60;99.90;;;;;;5036585;28;20493;-80
2022/05/24 09:16:24;;;;;;;5.53;4.10;;;16.60;99.90;;;;;;5039683;28;20045;-79
2022/05/24 09:18:58;;;;;;;6.15;4.50;;;16.80;99.90;;;;;;5025562;28;20045;-79
2022/05/24 09:21:29;;;;;;;5.63;4.10;;;17.10;99.90;;;;;;5035065;28;20033;-79
2022/05/24 09:24:00;;;;;;;5.82;4.28;;;17.40;99.90;;;;;;5034865;28;20521;-78
2022/05/24 09:26:26;;;;;;;5.07;3.60;;;17.70;99.90;;;;;;5039659;28;20044;-79
2022/05/24 09:29:12;;;;;;;4.90;4.00;;;17.90;99.90;;;;;;5021343;28;20032;-79
2022/05/24 09:31:39;;;;;;;5.30;3.72;;;17.70;99.90;;;;;;5019297;28;20041;-79
2022/05/24 09:34:17;;;;;;;4.03;2.80;;;17.40;99.90;;;;;;5018344;28;20044;-80
2022/05/24 09:36:57;;;;;;;2.45;2.00;;;17.00;99.90;;;;;;5035541;28;20494;-78
2022/05/24 09:39:26;;;;;;;3.03;1.60;;;16.80;99.90;;;;;;5017907;28;20073;-78
2022/05/24 09:41:57;;;;;;;2.80;1.77;;;16.70;99.90;;;;;;5018877;28;20033;-75
2022/05/24 09:44:24;;;;;;;3.10;1.77;;;16.70;99.90;;;;;;5049432;28;20040;-76
2022/05/24 09:46:50;;;;;;;4.40;1.30;;;16.80;99.90;;;;;;5054249;28;20486;-77
2022/05/24 09:49:26;;;;;;;1.40;1.20;;;16.80;99.90;;;;;;5030881;28;20051;-77
2022/05/24 09:51:56;;;;;;;1.52;1.10;;;16.90;99.90;;;;;;5054321;28;20032;-77
2022/05/24 09:54:25;;;;;;;2.10;1.20;;;17.00;99.90;;;;;;5052599;28;20044;-77
2022/05/24 09:57:02;;;;;;;1.90;1.42;;;17.10;99.90;;;;;;5050880;28;20040;-77
2022/05/24 09:59:28;;;;;;;1.45;1.33;;;17.30;99.90;;;;;;5042658;28;20041;-78
2022/05/24 10:01:54;;;;;;;1.67;1.10;;;17.20;99.90;;;;;;5048538;28;20090;-77
2022/05/24 10:04:23;;;;;;;2.03;1.38;;;17.00;99.90;;;;;;5031050;28;20112;-77
2022/05/24 10:06:51;;;;;;;3.17;1.55;;;16.90;99.90;;;;;;5017911;28;20073;-78
2022/05/24 10:09:20;;;;;;;3.63;1.50;;;16.70;99.90;;;;;;5018480;28;20062;-79
2022/05/24 10:12:01;;;;;;;2.30;1.83;;;16.50;99.90;;;;;;5034805;28;20495;-76
2022/05/24 10:14:50;;;;;;;1.95;1.70;;;16.70;99.90;;;;;;5035616;28;20041;-79
2022/05/24 10:17:53;;;;;;;5.35;1.90;;;17.90;99.90;;;;;;5051853;28;20055;-76
2022/05/24 10:20:39;;;;;;;2.47;1.80;;;18.30;99.90;;;;;;5041686;28;20411;-77
2022/05/24 10:23:23;;;;;;;0.60;0.50;;;17.50;99.90;;;;;;5017355;28;20124;-77
2022/05/24 10:26:05;;;;;;;0.88;0.50;;;16.50;99.90;;;;;;5033844;28;20511;-77
2022/05/24 10:28:45;;;;;;;0.45;0.45;;;15.80;99.90;;;;;;5024639;28;20029;-76
2022/05/24 10:31:39;;;;;;;1.08;0.50;;;15.30;99.90;;;;;;5048420;28;20045;-77
2022/05/24 10:40:24;;;;;;;1.67;1.00;;;14.10;99.90;;;;;;5033530;28;20049;-76
2022/05/24 10:43:17;;;;;;;1.33;0.80;;;13.70;99.90;;;;;;5050876;28;20521;-76
2022/05/24 10:45:58;;;;;;;1.23;1.00;;;13.50;99.90;;;;;;5023020;28;20036;-76
2022/05/24 10:48:57;;;;;;;1.42;1.10;;;13.30;99.90;;;;;;5016907;28;20037;-77
2022/05/24 10:51:35;;;;;;;2.10;1.30;;;13.10;99.90;;;;;;5033309;28;20044;-76
2022/05/24 10:54:27;;;;;;;2.20;2.00;;;13.10;99.90;;;;;;5033644;28;20403;-77
2022/05/24 10:56:58;;;;;;;2.70;1.95;;;13.10;99.90;;;;;;5039975;28;20048;-78
2022/05/24 10:59:43;;;;;;;2.85;2.50;;;13.20;99.90;;;;;;5047110;28;20491;-78
2022/05/24 11:02:22;;;;;;;3.45;2.92;;;13.30;99.90;;;;;;5035817;28;20037;-78
2022/05/24 11:04:59;;;;;;;5.38;2.67;;;13.40;99.90;;;;;;5029173;28;20028;-79
2022/05/24 11:07:27;;;;;;;4.90;2.83;;;13.50;99.90;;;;;;5035755;28;20081;-78
2022/05/24 11:10:03;;;;;;;3.70;3.10;;;13.70;99.90;;;;;;5043653;28;20115;-78
2022/05/24 11:12:35;;;;;;;3.92;3.40;;;13.70;99.90;;;;;;5044931;28;20036;-78
2022/05/24 11:15:09;;;;;;;5.60;3.33;;;13.80;99.90;;;;;;5057018;28;20095;-78
2022/05/24 11:17:35;;;;;;;4.35;3.08;;;13.90;99.90;;;;;;5025532;28;20045;-77
2022/05/24 11:20:04;;;;;;;4.03;3.20;;;13.90;99.90;;;;;;5026145;28;20090;-79
2022/05/24 11:22:38;;;;;;;4.88;2.60;;;13.70;99.90;;;;;;5040873;28;20039;-79
2022/05/24 11:25:19;;;;;;;2.38;2.00;;;13.60;99.90;;;;;;5059346;28;20060;-78
2022/05/24 11:27:56;;;;;;;3.13;1.85;;;13.40;99.90;;;;;;5054730;28;20078;-81
2022/05/24 11:30:35;;;;;;;2.00;1.75;;;13.40;99.90;;;;;;5038085;28;20044;-78
2022/05/24 11:33:05;;;;;;;2.58;1.70;;;13.50;99.90;;;;;;5025088;28;20041;-78
2022/05/24 11:35:39;;;;;;;1.45;1.02;;;13.60;99.90;;;;;;5040748;28;20099;-80
2022/05/24 11:38:41;;;;;;;1.20;0.90;;;13.60;99.90;;;;;;5041864;28;20057;-78
2022/05/24 11:41:11;;;;;;;2.47;1.17;;;13.50;99.90;;;;;;5037216;28;20072;-79
2022/05/24 11:43:39;;;;;;;1.25;1.13;;;13.50;99.90;;;;;;5044318;28;20045;-78
2022/05/24 11:46:32;;;;;;;2.28;1.75;;;13.50;99.90;;;;;;5043380;28;20044;-78
2022/05/24 11:48:59;;;;;;;2.70;2.10;;;13.70;99.90;;;;;;5059571;28;20420;-79
2022/05/24 11:51:30;;;;;;;3.03;2.33;;;14.30;99.90;;;;;;5043463;28;20041;-78
2022/05/24 11:53:56;;;;;;;3.50;2.30;;;15.10;99.90;;;;;;5059331;28;20780;-78
2022/05/24 11:56:24;;;;;;;3.90;2.45;;;15.60;99.90;;;;;;5027656;28;20498;-77
2022/05/24 11:58:54;;;;;;;3.10;2.28;;;16.00;99.90;;;;;;5039938;28;20404;-77
2022/05/24 12:01:22;;;;;;;4.95;2.92;;;16.50;99.90;;;;;;5040653;28;20123;-77
2022/05/24 12:09:59;;;;;;;1.98;1.23;;;18.80;99.90;;;;;;5055273;28;20044;-77
2022/05/24 12:12:45;;;;;;;1.70;0.80;;;19.70;99.90;;;;;;5040444;28;20045;-78
2022/05/24 12:15:21;;;;;;;1.75;0.70;;;19.60;99.90;;;;;;5035929;28;20090;-77
2022/05/24 12:18:00;;;;;;;1.00;0.90;;;19.40;99.90;;;;;;5053541;28;20044;-78
2022/05/24 12:20:34;;;;;;;1.33;0.90;;;19.30;99.90;;;;;;5039596;28;20041;-77
2022/05/24 12:23:14;;;;;;;1.98;1.00;;;19.30;99.90;;;;;;5042439;28;20067;-77
2022/05/24 12:25:54;;;;;;;2.22;1.40;;;19.50;99.90;;;;;;5046504;28;20028;-77
2022/05/24 12:28:41;;;;;;;1.42;0.75;;;19.90;99.90;;;;;;5035372;28;20033;-77
2022/05/24 12:31:18;;;;;;;1.05;0.85;;;20.10;99.90;;;;;;5019283;28;20041;-77
2022/05/24 12:33:53;;;;;;;1.58;0.80;;;20.00;99.90;;;;;;5047397;28;20650;-77
2022/05/24 12:36:33;;;;;;;2.67;1.08;;;20.50;99.90;;;;;;5041118;28;20410;-77
2022/05/24 12:39:07;;;;;;;1.42;0.80;;;21.10;99.90;;;;;;5019100;28;20051;-78
2022/05/24 12:42:02;;;;;;;2.15;0.82;;;21.00;99.90;;;;;;5035613;28;20047;-77
2022/05/24 12:44:48;;;;;;;1.15;1.00;;;21.10;99.90;;;;;;5044223;28;20060;-79
2022/05/24 12:47:17;;;;;;;1.92;1.10;;;21.70;99.90;;;;;;5040200;28;20517;-77
2022/05/24 12:49:48;;;;;;;1.75;1.10;;;22.20;99.90;;;;;;5046368;28;20046;-78
2022/05/24 12:52:18;;;;;;;1.35;1.17;;;22.80;99.90;;;;;;5035225;28;20041;-77
2022/05/24 12:54:50;;;;;;;1.30;1.10;;;23.00;99.90;;;;;;5035312;28;20091;-77
2022/05/24 12:57:23;;;;;;;1.48;1.30;;;22.40;99.90;;;;;;5035402;28;20490;-77
2022/05/24 13:00:04;;;;;;;2.65;1.35;;;21.60;99.90;;;;;;5043282;28;20495;-78
2022/05/24 13:02:32;;;;;;;2.83;1.80;;;21.20;99.90;;;;;;5027052;28;20036;-77
2022/05/24 13:05:06;;;;;;;1.95;1.05;;;21.40;99.90;;;;;;5035192;28;20037;-77
2022/05/24 13:07:43;;;;;;;1.45;1.17;;;22.10;99.90;;;;;;5044485;28;20239;-77
2022/05/24 13:10:21;;;;;;;0.93;0.88;;;22.20;99.90;;;;;;5048118;28;20406;-77
2022/05/24 13:12:53;;;;;;;0.93;0.80;;;21.60;99.90;;;;;;5054705;28;20123;-77
2022/05/24 13:15:34;;;;;;;1.33;0.95;;;21.10;99.90;;;;;;5055035;28;20036;-77
2022/05/24 13:18:03;;;;;;;2.20;1.10;;;20.90;99.90;;;;;;5045137;28;20097;-77
2022/05/24 13:20:59;;;;;;;1.98;1.00;;;20.50;99.90;;;;;;5047446;28;20059;-77
2022/05/24 13:23:34;;;;;;;1.42;1.10;;;20.40;99.90;;;;;;5023890;28;20049;-76
2022/05/24 13:26:05;;;;;;;1.63;0.90;;;20.40;99.90;;;;;;5035808;28;20048;-79
2022/05/24 13:28:41;;;;;;;3.55;1.50;;;20.50;99.90;;;;;;5048469;28;20051;-77
2022/05/24 13:34:26;;;;;;;1.38;0.90;;;20.30;99.90;;;;;;5042775;28;20064;-77
2022/05/24 13:36:58;;;;;;;2.47;1.00;;;20.20;99.90;;;;;;5018986;28;20072;-77
2022/05/24 13:39:29;;;;;;;2.70;1.10;;;20.20;99.90;;;;;;5018240;28;20123;-78
2022/05/24 13:41:58;;;;;;;1.40;0.82;;;20.50;99.90;;;;;;5034749;28;20075;-78
2022/05/24 13:44:26;;;;;;;1.63;0.88;;;20.90;99.90;;;;;;5034805;28;20115;-78
2022/05/24 13:46:53;;;;;;;1.73;1.00;;;21.10;99.90;;;;;;5037576;28;20114;-78
2022/05/24 13:49:38;;;;;;;2.88;0.93;;;21.20;99.90;;;;;;5028949;28;20037;-77
2022/05/24 13:52:17;;;;;;;1.45;0.88;;;21.50;99.90;;;;;;5033310;28;20114;-77
2022/05/24 13:54:43;;;;;;;2.03;0.82;;;21.30;99.90;;;;;;5056312;28;20043;-78
2022/05/24 13:57:30;;;;;;;3.97;1.10;;;21.60;99.90;;;;;;5042684;28;20380;-77
2022/05/24 13:59:57;;;;;;;2.83;1.27;;;21.90;99.90;;;;;;5038426;28;20179;-77
2022/05/24 14:02:24;;;;;;;1.90;1.25;;;21.90;99.90;;;;;;5055333;28;20044;-77
2022/05/24 14:04:50;;;;;;;2.35;1.40;;;21.60;99.90;;;;;;5052078;28;20105;-77
2022/05/24 14:07:18;;;;;;;2.70;1.38;;;21.20;99.90;;;;;;5040240;28;20127;-77
2022/05/24 14:09:43;;;;;;;3.33;1.40;;;20.90;99.90;;;;;;5054328;28;20144;-77
2022/05/24 14:12:10;;;;;;;2.55;1.33;;;20.90;99.90;;;;;;5053440;28;20068;-77
2022/05/24 14:14:37;;;;;;;2.33;1.20;;;20.90;99.90;;;;;;5046931;28;20119;-78
2022/05/24 14:17:06;;;;;;;1.40;1.10;;;20.70;99.90;;;;;;5034684;28;20072;-77
2022/05/24 14:19:32;;;;;;;2.53;1.48;;;20.70;99.90;;;;;;5033960;28;20106;-77
2022/05/24 14:21:58;;;;;;;2.00;1.33;;;20.80;99.90;;;;;;5034739;28;20255;-77
2022/05/24 14:24:27;;;;;;;3.92;1.55;;;21.00;99.90;;;;;;5035419;28;20086;-77
2022/05/24 14:26:56;;;;;;;2.50;1.48;;;21.10;99.90;;;;;;5048476;28;20037;-78
2022/05/24 14:29:27;;;;;;;2.45;1.30;;;21.40;99.90;;;;;;5039385;28;20048;-79
2022/05/24 14:31:53;;;;;;;2.80;1.30;;;21.60;99.90;;;;;;5030870;28;20505;-77
2022/05/24 14:34:21;;;;;;;2.03;1.38;;;21.90;99.90;;;;;;5039588;28;20446;-77
2022/05/24 14:36:47;;;;;;;2.70;1.25;;;22.00;99.90;;;;;;5045835;28;20036;-77
2022/05/24 14:39:14;;;;;;;3.05;1.40;;;21.60;99.90;;;;;;5023198;28;20049;-77
2022/05/24 14:41:42;;;;;;;2.67;1.45;;;21.00;99.90;;;;;;5034460;28;20033;-77
2022/05/24 14:44:17;;;;;;;4.15;1.58;;;20.60;99.90;;;;;;5045145;28;20081;-76
2022/05/24 14:46:43;;;;;;;1.50;1.30;;;20.70;99.90;;;;;;5055328;28;20048;-76
2022/05/24 14:49:09;;;;;;;2.45;1.48;;;20.90;99.90;;;;;;5040551;28;20040;-77
2022/05/24 14:51:50;;;;;;;2.97;1.45;;;21.10;99.90;;;;;;5057169;28;20043;-77
2022/05/24 14:54:20;;;;;;;1.88;0.93;;;21.30;99.90;;;;;;5058150;23;20172;-80
2022/05/24 14:56:53;;;;;;;1.13;1.00;;;21.30;99.90;;;;;;5003152;28;20038;-80
2022/05/24 14:59:31;;;;;;;2.22;1.15;;;21.20;99.90;;;;;;5003218;28;20132;-80
2022/05/24 15:05:06;;;;;;;1.85;1.30;;;20.90;99.90;;;;;;5011735;28;20081;-79
2022/05/24 15:15:51;;;;;;;1.98;1.15;;;19.40;99.90;;;;;;5014420;28;20060;-78
2022/05/24 15:18:20;;;;;;;1.17;1.08;;;19.00;99.90;;;;;;4999891;28;20038;-78
2022/05/24 15:20:46;;;;;;;1.55;1.10;;;18.80;99.90;;;;;;4999159;28;20046;-78
2022/05/24 15:23:18;;;;;;;0.90;0.90;;;18.60;99.90;;;;;;4996034;28;20518;-79
2022/05/24 15:25:59;;;;;;;2.50;1.23;;;18.40;99.90;;;;;;4995853;28;20463;-78
2022/05/24 15:28:35;;;;;;;1.45;1.30;;;18.30;99.90;;;;;;4983040;28;20038;-80
2022/05/24 15:31:02;;;;;;;1.85;1.50;;;18.20;99.90;;;;;;4999173;28;20068;-79
2022/05/24 15:33:31;;;;;;;1.77;1.25;;;18.10;99.90;;;;;;5007541;28;20436;-79
2022/05/24 15:36:00;;;;;;;1.55;1.40;;;17.90;99.90;;;;;;4997713;28;20345;-79
2022/05/24 15:38:30;;;;;;;1.50;1.40;;;17.80;99.90;;;;;;4998549;28;20046;-80
2022/05/24 15:41:04;;;;;;;2.67;1.45;;;17.60;99.90;;;;;;5014684;28;20062;-79
2022/05/24 15:43:46;;;;;;;1.77;1.10;;;17.40;99.90;;;;;;4970624;28;20081;-80
2022/05/24 15:46:21;;;;;;;2.25;1.50;;;17.20;99.90;;;;;;4998996;28;20121;-80
2022/05/24 15:49:06;;;;;;;1.52;1.30;;;17.00;99.90;;;;;;5015551;28;20045;-82
2022/05/24 15:51:59;;;;;;;1.95;1.15;;;17.00;99.90;;;;;;5009817;28;20039;-80
2022/05/24 15:54:57;;;;;;;3.13;1.25;;;17.00;99.90;;;;;;5009202;28;20065;-82
2022/05/24 15:57:37;;;;;;;2.03;1.00;;;16.90;99.90;;;;;;4984274;28;20446;-79
2022/05/24 16:00:06;;;;;;;1.08;0.90;;;16.80;99.90;;;;;;5017713;28;20042;-79
2022/05/24 16:02:37;;;;;;;2.85;1.17;;;16.70;99.90;;;;;;4997598;28;20437;-79
2022/05/24 16:10:49;;;;;;;1.35;0.93;;;16.60;99.90;;;;;;5016634;28;20057;-80
2022/05/24 16:13:18;;;;;;;2.05;1.02;;;16.60;99.90;;;;;;5000372;28;20065;-80
2022/05/24 16:15:48;;;;;;;1.90;1.15;;;16.50;99.90;;;;;;4999904;28;20048;-79
2022/05/24 16:18:16;;;;;;;1.58;1.10;;;16.40;99.90;;;;;;5015685;28;20479;-79
2022/05/24 16:21:00;;;;;;;;;;;;;;;;;;;;;
2022/05/24 16:23:31;;;;;;;2.53;1.00;;;16.40;99.90;;;;;;5002865;28;20497;-79
2022/05/24 16:26:01;;;;;;;1.95;1.10;;;16.50;99.90;;;;;;5006455;28;20033;-80
2022/05/24 16:28:38;;;;;;;3.13;1.23;;;16.50;99.90;;;;;;4975986;28;20041;-79
2022/05/24 16:31:08;;;;;;;2.78;1.20;;;16.50;99.90;;;;;;4994514;28;20042;-80
2022/05/24 16:33:36;;;;;;;4.07;1.45;;;16.50;99.90;;;;;;4976092;28;20044;-79
2022/05/24 16:36:03;;;;;;;1.60;1.17;;;16.40;99.90;;;;;;4993490;28;20497;-80
2022/05/24 16:38:41;;;;;;;3.25;1.35;;;16.30;99.90;;;;;;4975217;28;20140;-80
2022/05/24 16:41:11;;;;;;;1.60;1.20;;;16.10;99.90;;;;;;4986464;28;20097;-80
2022/05/24 16:43:52;;;;;;;1.40;1.30;;;15.90;99.90;;;;;;5114439;23;20040;-80
2022/05/24 16:46:19;;;;;;;1.90;1.10;;;15.60;99.90;;;;;;5062644;28;20032;-80
2022/05/24 16:48:54;;;;;;;3.45;1.13;;;15.50;99.90;;;;;;5050920;28;20505;-81
2022/05/24 16:52:25;;;;;;;1.73;1.20;;;15.40;99.90;;;;;;5061403;28;20037;-81
2022/05/24 17:00:45;;;;;;;2.83;1.48;;;15.10;99.90;;;;;;5096029;28;20044;-79
2022/05/24 17:03:29;;;;;;;2.17;1.20;;;15.20;99.90;;;;;;5080243;28;20042;-78
2022/05/24 17:06:00;;;;;;;3.08;1.17;;;15.30;99.90;;;;;;5058043;28;20036;-79
2022/05/24 17:08:26;;;;;;;1.20;1.00;;;15.30;99.90;;;;;;5058261;28;20036;-79
2022/05/24 17:11:00;;;;;;;1.52;1.23;;;15.30;99.90;;;;;;5071114;28;20094;-79